Time;durP1;ratioP1;P1;durP2;ratioP2;P2;SDS_P1;SDS_P2;PMS_P1;PMS_P2;Temp;Humidity;BMP_temperature;BMP_pressure;BME280_temperature;BME280_humidity;BME280_pressure;Samples;Min_cycle;Max_cycle;Signal;HPM_P1;HPM_P2
2024/04/03 00:00:51;;;;;;;0.80;0.40;;;;;;;;;;5068698;28;20215;-54
2024/04/03 00:03:17;;;;;;;0.50;0.30;;;;;;;;;;5069064;28;20202;-57
2024/04/03 00:05:43;;;;;;;0.60;0.40;;;;;;;;;;5033004;28;20211;-55
2024/04/03 00:08:09;;;;;;;0.55;0.50;;;;;;;;;;5068644;28;20233;-57
2024/04/03 00:10:35;;;;;;;0.70;0.52;;;;;;;;;;5068694;28;20207;-56
2024/04/03 00:13:01;;;;;;;0.40;0.40;;;;;;;;;;5068878;28;20203;-58
2024/04/03 00:15:27;;;;;;;0.30;0.30;;;;;;;;;;5068357;28;20202;-58
2024/04/03 00:17:54;;;;;;;0.82;0.52;;;;;;;;;;5068762;28;20238;-56
2024/04/03 00:20:21;;;;;;;0.38;0.38;;;;;;;;;;5068792;28;20301;-57
2024/04/03 00:22:47;;;;;;;1.17;0.35;;;;;;;;;;5068337;28;20198;-55
2024/04/03 00:25:13;;;;;;;0.40;0.40;;;;;;;;;;5068478;28;20222;-57
2024/04/03 00:27:39;;;;;;;0.80;0.52;;;;;;;;;;5068491;28;20195;-56
2024/04/03 00:30:05;;;;;;;0.35;0.20;;;;;;;;;;5068431;28;20209;-56
2024/04/03 00:32:31;;;;;;;0.77;0.40;;;;;;;;;;5068772;28;20230;-56
2024/04/03 00:34:59;;;;;;;0.95;0.32;;;;;;;;;;5068331;28;20675;-56
2024/04/03 00:37:25;;;;;;;0.40;0.30;;;;;;;;;;5068382;28;20774;-56
2024/04/03 00:39:53;;;;;;;0.55;0.40;;;;;;;;;;5068322;28;20199;-55
2024/04/03 00:42:19;;;;;;;0.40;0.30;;;;;;;;;;5068552;28;20665;-57
2024/04/03 00:44:47;;;;;;;0.32;0.32;;;;;;;;;;5068401;28;20249;-56
2024/04/03 00:47:13;;;;;;;0.30;0.30;;;;;;;;;;5068137;28;20203;-56
2024/04/03 00:49:39;;;;;;;1.73;0.50;;;;;;;;;;5068493;28;20650;-56
2024/04/03 00:52:06;;;;;;;0.95;0.40;;;;;;;;;;5068161;28;20203;-57
2024/04/03 00:54:33;;;;;;;0.40;0.40;;;;;;;;;;5067866;28;20206;-57
2024/04/03 00:56:59;;;;;;;0.25;0.25;;;;;;;;;;5067839;28;20230;-57
2024/04/03 00:59:26;;;;;;;0.30;0.30;;;;;;;;;;5067647;28;20206;-56
2024/04/03 01:01:51;;;;;;;0.25;0.20;;;;;;;;;;5067858;28;20206;-56
2024/04/03 01:04:18;;;;;;;0.38;0.38;;;;;;;;;;5067661;28;20199;-56
2024/04/03 01:06:43;;;;;;;0.20;0.20;;;;;;;;;;5067824;28;20198;-56
2024/04/03 01:09:11;;;;;;;0.30;0.30;;;;;;;;;;5067264;28;20597;-57
2024/04/03 01:11:38;;;;;;;1.10;0.30;;;;;;;;;;5067488;28;20202;-56
2024/04/03 01:14:03;;;;;;;0.30;0.30;;;;;;;;;;5067436;28;20594;-57
2024/04/03 01:16:30;;;;;;;0.28;0.28;;;;;;;;;;5067470;28;20203;-57
2024/04/03 01:18:55;;;;;;;0.22;0.22;;;;;;;;;;5067271;28;20199;-55
2024/04/03 01:21:22;;;;;;;0.30;0.30;;;;;;;;;;5067443;28;20210;-55
2024/04/03 01:23:50;;;;;;;1.42;0.43;;;;;;;;;;5067139;28;20211;-56
2024/04/03 01:26:17;;;;;;;0.38;0.38;;;;;;;;;;5067276;28;20207;-55
2024/04/03 01:28:42;;;;;;;0.35;0.35;;;;;;;;;;5067287;28;20198;-57
2024/04/03 01:31:09;;;;;;;0.30;0.30;;;;;;;;;;5066952;28;20707;-57
2024/04/03 01:33:34;;;;;;;0.60;0.35;;;;;;;;;;5047831;28;20607;-57
2024/04/03 01:36:01;;;;;;;0.40;0.30;;;;;;;;;;5067068;28;20211;-57
2024/04/03 01:38:26;;;;;;;0.40;0.40;;;;;;;;;;5066891;28;20678;-57
2024/04/03 01:40:55;;;;;;;0.40;0.40;;;;;;;;;;5066956;28;20287;-56
2024/04/03 01:43:20;;;;;;;0.30;0.30;;;;;;;;;;5066684;28;21280;-57
2024/04/03 01:45:47;;;;;;;0.30;0.30;;;;;;;;;;5067068;28;20198;-59
2024/04/03 01:48:13;;;;;;;0.38;0.30;;;;;;;;;;5067019;28;20205;-59
2024/04/03 01:50:40;;;;;;;0.35;0.30;;;;;;;;;;5067361;28;20203;-56
2024/04/03 01:53:06;;;;;;;0.40;0.40;;;;;;;;;;5067155;28;20205;-56
2024/04/03 01:55:32;;;;;;;0.30;0.30;;;;;;;;;;5066987;28;20199;-59
2024/04/03 01:57:59;;;;;;;0.28;0.28;;;;;;;;;;5066874;28;20230;-57
2024/04/03 02:00:26;;;;;;;0.60;0.30;;;;;;;;;;5067015;28;20250;-59
2024/04/03 02:02:51;;;;;;;0.68;0.35;;;;;;;;;;5066536;28;20202;-59
2024/04/03 02:05:18;;;;;;;0.22;0.22;;;;;;;;;;5066950;28;20225;-57
2024/04/03 02:07:43;;;;;;;0.35;0.30;;;;;;;;;;5047878;28;20191;-60
2024/04/03 02:10:10;;;;;;;0.98;0.50;;;;;;;;;;5066752;28;20214;-59
2024/04/03 02:12:35;;;;;;;0.38;0.25;;;;;;;;;;5066934;28;20199;-57
2024/04/03 02:15:04;;;;;;;0.20;0.20;;;;;;;;;;5067121;28;20583;-57
2024/04/03 02:17:29;;;;;;;0.30;0.20;;;;;;;;;;5067091;28;20226;-59
2024/04/03 02:19:56;;;;;;;1.33;0.38;;;;;;;;;;5067004;28;20214;-57
2024/04/03 02:22:21;;;;;;;0.70;0.43;;;;;;;;;;5047852;28;20652;-59
2024/04/03 02:24:48;;;;;;;0.57;0.55;;;;;;;;;;5066635;28;20301;-56
2024/04/03 02:27:13;;;;;;;0.93;0.60;;;;;;;;;;5066819;28;20207;-59
2024/04/03 02:29:40;;;;;;;0.85;0.60;;;;;;;;;;5066865;28;20198;-59
2024/04/03 02:32:07;;;;;;;0.45;0.40;;;;;;;;;;5067080;28;20233;-59
2024/04/03 02:34:33;;;;;;;0.32;0.32;;;;;;;;;;5066470;28;20301;-57
2024/04/03 02:36:59;;;;;;;0.32;0.32;;;;;;;;;;5066544;28;20191;-57
2024/04/03 02:39:25;;;;;;;0.40;0.40;;;;;;;;;;5066375;28;20207;-55
2024/04/03 02:41:51;;;;;;;0.90;0.52;;;;;;;;;;5066341;28;20234;-57
2024/04/03 02:44:18;;;;;;;0.40;0.40;;;;;;;;;;5066449;28;20241;-57
2024/04/03 02:46:43;;;;;;;1.00;0.30;;;;;;;;;;5066752;28;20195;-57
2024/04/03 02:49:13;;;;;;;0.32;0.32;;;;;;;;;;5066680;28;20564;-58
2024/04/03 02:51:38;;;;;;;0.28;0.28;;;;;;;;;;5066652;28;20253;-58
2024/04/03 02:54:05;;;;;;;0.28;0.28;;;;;;;;;;5066690;28;20228;-57
2024/04/03 02:56:31;;;;;;;0.50;0.45;;;;;;;;;;5066194;28;20246;-58
2024/04/03 02:58:57;;;;;;;0.85;0.30;;;;;;;;;;5066089;28;20266;-57
2024/04/03 03:01:23;;;;;;;0.30;0.30;;;;;;;;;;5066073;28;20195;-57
2024/04/03 03:03:49;;;;;;;0.55;0.40;;;;;;;;;;5066334;28;20207;-58
2024/04/03 03:06:16;;;;;;;0.20;0.20;;;;;;;;;;5066327;28;20202;-58
2024/04/03 03:08:43;;;;;;;0.77;0.40;;;;;;;;;;5066374;28;20215;-57
2024/04/03 03:11:08;;;;;;;0.30;0.30;;;;;;;;;;5066265;28;20699;-58
2024/04/03 03:13:35;;;;;;;0.30;0.30;;;;;;;;;;5066210;28;20210;-57
2024/04/03 03:16:01;;;;;;;0.95;0.35;;;;;;;;;;5066523;28;20209;-57
2024/04/03 03:18:29;;;;;;;0.50;0.50;;;;;;;;;;5066165;28;20237;-57
2024/04/03 03:20:55;;;;;;;0.28;0.25;;;;;;;;;;5046930;28;20199;-57
2024/04/03 03:23:23;;;;;;;0.98;0.60;;;;;;;;;;5066105;28;20213;-57
2024/04/03 03:25:49;;;;;;;0.30;0.30;;;;;;;;;;5065885;28;20199;-56
2024/04/03 03:28:16;;;;;;;0.75;0.60;;;;;;;;;;5065732;28;20210;-57
2024/04/03 03:30:45;;;;;;;0.68;0.50;;;;;;;;;;5046639;28;20214;-56
2024/04/03 03:33:12;;;;;;;0.30;0.30;;;;;;;;;;5067090;28;20679;-58
2024/04/03 03:35:37;;;;;;;0.70;0.40;;;;;;;;;;5069419;28;20206;-57
2024/04/03 03:38:04;;;;;;;0.93;0.50;;;;;;;;;;5069465;28;20268;-56
2024/04/03 03:40:33;;;;;;;1.00;0.40;;;;;;;;;;5069251;28;20210;-54
2024/04/03 03:42:59;;;;;;;0.43;0.40;;;;;;;;;;5069869;28;20230;-55
2024/04/03 03:45:26;;;;;;;0.40;0.30;;;;;;;;;;5069373;28;20948;-57
2024/04/03 03:47:52;;;;;;;0.30;0.30;;;;;;;;;;5069057;28;20203;-57
2024/04/03 03:53:02;;;;;;;0.25;0.25;;;;;;;;;;5006707;28;20354;-57
2024/04/03 03:55:29;;;;;;;0.20;0.20;;;;;;;;;;5006837;28;20212;-56
2024/04/03 03:57:57;;;;;;;0.35;0.30;;;;;;;;;;5006369;28;20383;-57
2024/04/03 04:00:25;;;;;;;0.65;0.25;;;;;;;;;;5006940;28;20205;-57
2024/04/03 04:02:51;;;;;;;0.20;0.20;;;;;;;;;;5006498;28;20197;-55
2024/04/03 04:05:17;;;;;;;0.85;0.35;;;;;;;;;;5006584;28;20220;-58
2024/04/03 04:07:44;;;;;;;3.28;0.90;;;;;;;;;;5006306;28;20209;-57
2024/04/03 04:10:10;;;;;;;0.57;0.57;;;;;;;;;;5006352;28;20649;-58
2024/04/03 04:12:36;;;;;;;0.85;0.40;;;;;;;;;;4973693;28;20212;-56
2024/04/03 04:15:04;;;;;;;0.60;0.43;;;;;;;;;;5006397;28;20240;-57
2024/04/03 04:17:31;;;;;;;0.57;0.50;;;;;;;;;;5006192;28;20363;-58
2024/04/03 04:19:56;;;;;;;0.40;0.40;;;;;;;;;;5006299;28;20200;-54
2024/04/03 04:22:23;;;;;;;0.50;0.50;;;;;;;;;;5006616;28;20589;-57
2024/04/03 04:24:50;;;;;;;0.47;0.43;;;;;;;;;;5006280;28;20234;-55
2024/04/03 04:27:17;;;;;;;0.93;0.60;;;;;;;;;;5005895;28;20213;-55
2024/04/03 04:29:45;;;;;;;0.47;0.47;;;;;;;;;;5024043;28;20217;-54
2024/04/03 04:32:13;;;;;;;0.50;0.40;;;;;;;;;;5068527;28;20718;-59
2024/04/03 04:34:38;;;;;;;0.38;0.38;;;;;;;;;;5068740;28;20195;-53
2024/04/03 04:37:05;;;;;;;1.92;0.35;;;;;;;;;;5068382;28;20568;-56
2024/04/03 04:39:31;;;;;;;0.65;0.50;;;;;;;;;;5068062;28;20637;-57
2024/04/03 04:41:57;;;;;;;0.55;0.30;;;;;;;;;;5048870;28;20241;-58
2024/04/03 04:44:23;;;;;;;0.70;0.45;;;;;;;;;;5067079;28;20214;-56
2024/04/03 04:46:49;;;;;;;2.50;0.68;;;;;;;;;;5068018;28;20198;-54
2024/04/03 04:49:16;;;;;;;0.60;0.40;;;;;;;;;;5068208;28;20678;-55
2024/04/03 04:51:43;;;;;;;0.47;0.47;;;;;;;;;;5067862;28;20282;-56
2024/04/03 04:54:09;;;;;;;1.40;0.40;;;;;;;;;;5067951;28;20344;-57
2024/04/03 04:56:36;;;;;;;0.40;0.32;;;;;;;;;;5067846;28;20241;-55
2024/04/03 04:59:02;;;;;;;1.27;0.50;;;;;;;;;;5067841;28;20237;-56
2024/04/03 05:01:28;;;;;;;0.60;0.57;;;;;;;;;;5048773;28;20203;-56
2024/04/03 05:03:54;;;;;;;0.40;0.30;;;;;;;;;;5067521;28;20190;-56
2024/04/03 05:06:22;;;;;;;1.83;0.60;;;;;;;;;;5067823;28;20215;-57
2024/04/03 05:08:47;;;;;;;0.57;0.50;;;;;;;;;;5067548;28;20229;-55
2024/04/03 05:11:14;;;;;;;0.45;0.45;;;;;;;;;;5067505;28;20199;-58
2024/04/03 05:13:39;;;;;;;0.40;0.40;;;;;;;;;;5048526;28;21028;-58
2024/04/03 05:16:06;;;;;;;0.70;0.63;;;;;;;;;;5067649;28;20207;-56
2024/04/03 05:18:32;;;;;;;1.05;0.70;;;;;;;;;;5067205;28;20231;-59
2024/04/03 05:20:59;;;;;;;1.10;0.70;;;;;;;;;;5067462;28;20606;-56
2024/04/03 05:23:26;;;;;;;1.90;0.63;;;;;;;;;;5067026;28;20702;-54
2024/04/03 05:25:56;;;;;;;0.65;0.50;;;;;;;;;;5067314;28;20207;-55
2024/04/03 05:28:23;;;;;;;2.20;0.70;;;;;;;;;;5067411;28;20210;-54
2024/04/03 05:30:48;;;;;;;0.50;0.50;;;;;;;;;;5067000;28;20675;-53
2024/04/03 05:33:15;;;;;;;0.82;0.60;;;;;;;;;;5067191;28;20308;-57
2024/04/03 05:35:40;;;;;;;0.93;0.70;;;;;;;;;;5031284;28;20647;-55
2024/04/03 05:38:07;;;;;;;1.05;0.60;;;;;;;;;;5066983;28;20234;-56
2024/04/03 05:40:34;;;;;;;0.68;0.43;;;;;;;;;;5066554;28;20236;-56
2024/04/03 05:43:00;;;;;;;0.60;0.50;;;;;;;;;;5066623;28;20326;-54
2024/04/03 05:45:26;;;;;;;2.17;0.47;;;;;;;;;;5066986;28;20218;-55
2024/04/03 05:47:52;;;;;;;1.38;0.60;;;;;;;;;;5031356;28;20211;-53
2024/04/03 05:50:18;;;;;;;1.02;0.65;;;;;;;;;;5066656;28;20234;-53
2024/04/03 05:52:45;;;;;;;0.45;0.45;;;;;;;;;;5066894;28;20253;-53
2024/04/03 05:55:11;;;;;;;0.73;0.50;;;;;;;;;;5066739;28;20318;-51
2024/04/03 05:57:39;;;;;;;1.48;0.50;;;;;;;;;;5066208;28;20285;-53
2024/04/03 06:00:05;;;;;;;0.38;0.38;;;;;;;;;;5066888;28;20199;-56
2024/04/03 06:02:32;;;;;;;1.65;0.55;;;;;;;;;;5031065;28;20203;-52
2024/04/03 06:04:58;;;;;;;2.65;0.60;;;;;;;;;;5066947;28;20199;-55
2024/04/03 06:07:24;;;;;;;1.75;0.55;;;;;;;;;;5066811;28;20257;-54
2024/04/03 06:09:51;;;;;;;0.68;0.40;;;;;;;;;;5066405;28;20203;-52
2024/04/03 06:12:18;;;;;;;1.25;0.68;;;;;;;;;;5066006;28;20266;-53
2024/04/03 06:14:45;;;;;;;0.80;0.40;;;;;;;;;;5066898;28;20203;-55
2024/04/03 06:17:12;;;;;;;1.75;0.50;;;;;;;;;;5066415;28;20214;-54
2024/04/03 06:19:37;;;;;;;1.08;0.40;;;;;;;;;;5030769;28;20926;-53
2024/04/03 06:22:04;;;;;;;2.10;0.40;;;;;;;;;;5066234;28;20242;-54
2024/04/03 06:24:30;;;;;;;1.40;0.60;;;;;;;;;;5065922;28;20229;-55
2024/04/03 06:26:56;;;;;;;1.23;0.38;;;;;;;;;;5066026;28;20203;-55
2024/04/03 06:29:23;;;;;;;0.98;0.60;;;;;;;;;;5066347;28;20586;-51
2024/04/03 06:31:52;;;;;;;0.55;0.40;;;;;;;;;;5066149;28;20286;-52
2024/04/03 06:34:19;;;;;;;1.30;0.40;;;;;;;;;;5066406;28;20210;-55
2024/04/03 06:36:44;;;;;;;0.98;0.40;;;;;;;;;;5066425;28;20209;-53
2024/04/03 06:39:11;;;;;;;0.30;0.30;;;;;;;;;;5066094;28;20230;-53
2024/04/03 06:41:36;;;;;;;0.93;0.40;;;;;;;;;;5065984;28;20198;-54
2024/04/03 06:44:03;;;;;;;1.65;0.50;;;;;;;;;;5066206;28;20225;-55
2024/04/03 06:46:28;;;;;;;0.40;0.30;;;;;;;;;;5066195;28;20195;-52
2024/04/03 06:48:56;;;;;;;2.65;1.00;;;;;;;;;;5065807;28;20199;-50
2024/04/03 06:51:22;;;;;;;1.40;1.30;;;;;;;;;;5065778;28;20237;-53
2024/04/03 06:53:50;;;;;;;2.80;0.70;;;;;;;;;;5030265;28;20238;-54
2024/04/03 06:56:15;;;;;;;2.05;0.85;;;;;;;;;;5065785;28;20230;-56
2024/04/03 06:58:42;;;;;;;1.00;0.65;;;;;;;;;;5066001;28;20238;-54
2024/04/03 07:01:09;;;;;;;1.27;0.47;;;;;;;;;;5066102;28;20207;-54
2024/04/03 07:03:35;;;;;;;0.50;0.40;;;;;;;;;;5065998;28;20203;-53
2024/04/03 07:06:02;;;;;;;1.35;0.68;;;;;;;;;;5065910;28;20203;-51
2024/04/03 07:08:29;;;;;;;1.17;0.57;;;;;;;;;;5067261;28;20679;-54
2024/04/03 07:10:54;;;;;;;1.58;0.68;;;;;;;;;;5069374;28;20254;-53
2024/04/03 07:13:22;;;;;;;0.50;0.50;;;;;;;;;;5069452;28;20715;-56
2024/04/03 07:15:48;;;;;;;1.52;0.57;;;;;;;;;;5069868;28;20256;-52
2024/04/03 07:18:14;;;;;;;0.90;0.40;;;;;;;;;;5069534;28;20653;-53
2024/04/03 07:20:40;;;;;;;0.77;0.50;;;;;;;;;;5069483;28;20252;-56
2024/04/03 07:23:09;;;;;;;0.45;0.38;;;;;;;;;;5069487;28;20239;-56
2024/04/03 07:25:35;;;;;;;1.35;0.60;;;;;;;;;;5069137;28;20223;-53
2024/04/03 07:28:09;;;;;;;0.95;0.50;;;;;;;;;;5069196;28;20215;-57
2024/04/03 07:30:35;;;;;;;1.02;0.47;;;;;;;;;;5069434;28;20206;-56
2024/04/03 07:33:02;;;;;;;1.75;0.60;;;;;;;;;;5069275;28;20681;-57
2024/04/03 07:35:29;;;;;;;0.57;0.50;;;;;;;;;;5069129;28;20201;-57
2024/04/03 07:37:56;;;;;;;1.60;0.40;;;;;;;;;;5068785;28;20238;-53
2024/04/03 07:40:23;;;;;;;0.50;0.50;;;;;;;;;;5068867;28;20202;-55
2024/04/03 07:42:50;;;;;;;1.10;0.60;;;;;;;;;;5069113;28;20353;-52
2024/04/03 07:45:15;;;;;;;0.77;0.35;;;;;;;;;;5068742;28;20205;-49
2024/04/03 07:47:42;;;;;;;0.40;0.40;;;;;;;;;;5069289;28;20206;-53
2024/04/03 07:50:08;;;;;;;2.15;0.50;;;;;;;;;;5068669;28;20656;-53
2024/04/03 07:52:37;;;;;;;0.90;0.47;;;;;;;;;;5068793;28;20225;-53
2024/04/03 07:55:03;;;;;;;0.40;0.40;;;;;;;;;;5068701;28;20273;-57
2024/04/03 07:57:31;;;;;;;0.98;0.52;;;;;;;;;;5068483;28;20676;-54
2024/04/03 07:59:57;;;;;;;0.70;0.68;;;;;;;;;;5033102;28;20322;-53
2024/04/03 08:02:23;;;;;;;1.10;0.50;;;;;;;;;;5068730;28;20655;-54
2024/04/03 08:04:49;;;;;;;0.40;0.40;;;;;;;;;;5068569;28;20264;-53
2024/04/03 08:07:15;;;;;;;0.57;0.55;;;;;;;;;;5068270;28;20238;-53
2024/04/03 08:09:41;;;;;;;0.68;0.50;;;;;;;;;;5068603;28;20199;-55
2024/04/03 08:12:08;;;;;;;1.00;0.50;;;;;;;;;;5068170;28;20202;-53
2024/04/03 08:14:35;;;;;;;1.05;0.50;;;;;;;;;;5068402;28;20633;-54
2024/04/03 08:17:01;;;;;;;1.13;0.50;;;;;;;;;;5068576;28;20202;-56
2024/04/03 08:19:27;;;;;;;1.42;0.50;;;;;;;;;;5068077;28;20230;-53
2024/04/03 08:21:53;;;;;;;0.93;0.52;;;;;;;;;;5068002;28;20249;-55
2024/04/03 08:24:19;;;;;;;0.75;0.43;;;;;;;;;;5068412;28;20611;-53
2024/04/03 08:26:46;;;;;;;1.25;0.60;;;;;;;;;;5067991;28;20214;-53
2024/04/03 08:29:12;;;;;;;1.27;0.50;;;;;;;;;;5068194;28;20199;-55
2024/04/03 08:31:40;;;;;;;0.98;0.40;;;;;;;;;;5068585;28;20253;-52
2024/04/03 08:34:06;;;;;;;0.57;0.40;;;;;;;;;;5068181;28;20194;-56
2024/04/03 08:36:33;;;;;;;1.30;0.60;;;;;;;;;;5049227;28;20991;-55
2024/04/03 08:38:59;;;;;;;1.80;0.63;;;;;;;;;;5067899;28;20889;-55
2024/04/03 08:41:25;;;;;;;1.05;0.43;;;;;;;;;;5068094;28;20738;-55
2024/04/03 08:43:51;;;;;;;0.85;0.40;;;;;;;;;;5067826;28;20206;-51
2024/04/03 08:46:18;;;;;;;1.08;0.57;;;;;;;;;;5068028;28;20215;-51
2024/04/03 08:48:46;;;;;;;0.73;0.32;;;;;;;;;;5067818;28;20198;-55
2024/04/03 08:51:14;;;;;;;0.75;0.35;;;;;;;;;;5067539;28;20213;-54
2024/04/03 08:53:41;;;;;;;1.65;0.50;;;;;;;;;;5067733;28;20294;-55
2024/04/03 08:56:08;;;;;;;0.30;0.30;;;;;;;;;;5067560;28;20211;-53
2024/04/03 08:58:35;;;;;;;2.22;0.50;;;;;;;;;;5032317;28;20219;-56
2024/04/03 09:01:02;;;;;;;0.88;0.50;;;;;;;;;;5067812;28;20310;-52
2024/04/03 09:03:28;;;;;;;1.38;0.70;;;;;;;;;;5067554;28;20195;-54
2024/04/03 09:05:56;;;;;;;1.30;0.40;;;;;;;;;;5067172;28;20626;-54
2024/04/03 09:08:21;;;;;;;0.80;0.40;;;;;;;;;;5067366;28;20662;-53
2024/04/03 09:10:49;;;;;;;0.82;0.60;;;;;;;;;;5067021;28;20202;-55
2024/04/03 09:13:15;;;;;;;1.08;0.60;;;;;;;;;;5067174;28;20705;-54
2024/04/03 09:15:42;;;;;;;0.80;0.55;;;;;;;;;;5067575;28;20230;-55
2024/04/03 09:18:08;;;;;;;1.75;0.50;;;;;;;;;;5067590;28;20191;-56
2024/04/03 09:20:35;;;;;;;0.75;0.40;;;;;;;;;;5067459;28;20203;-56
2024/04/03 09:23:02;;;;;;;1.70;0.73;;;;;;;;;;5067095;28;20198;-54
2024/04/03 09:25:29;;;;;;;1.05;0.25;;;;;;;;;;5066935;28;20254;-56
2024/04/03 09:27:58;;;;;;;1.65;0.57;;;;;;;;;;5067098;28;20198;-55
2024/04/03 09:30:25;;;;;;;1.08;0.60;;;;;;;;;;5066815;28;20203;-53
2024/04/03 09:32:54;;;;;;;1.20;0.30;;;;;;;;;;5066836;28;20230;-56
2024/04/03 09:35:21;;;;;;;0.80;0.50;;;;;;;;;;5067005;28;20285;-56
2024/04/03 09:37:47;;;;;;;0.60;0.30;;;;;;;;;;5066557;28;20598;-55
2024/04/03 09:40:15;;;;;;;0.95;0.60;;;;;;;;;;5066583;28;20230;-55
2024/04/03 09:42:42;;;;;;;1.45;0.77;;;;;;;;;;5067044;28;20234;-52
2024/04/03 09:45:09;;;;;;;1.13;0.30;;;;;;;;;;5066645;28;20206;-57
2024/04/03 09:47:36;;;;;;;1.85;0.30;;;;;;;;;;5066698;28;20667;-56
2024/04/03 09:50:03;;;;;;;1.42;0.43;;;;;;;;;;5067146;28;20214;-55
2024/04/03 09:52:28;;;;;;;0.75;0.47;;;;;;;;;;5067090;28;20263;-51
2024/04/03 09:54:55;;;;;;;2.28;0.60;;;;;;;;;;5066663;28;20206;-56
2024/04/03 09:57:22;;;;;;;1.15;0.50;;;;;;;;;;5067282;28;20205;-54
2024/04/03 09:59:50;;;;;;;0.98;0.50;;;;;;;;;;5066710;28;20300;-54
2024/04/03 10:02:16;;;;;;;1.17;0.40;;;;;;;;;;5066615;28;20201;-56
2024/04/03 10:04:43;;;;;;;1.02;0.50;;;;;;;;;;5066548;28;20618;-56
2024/04/03 10:07:15;;;;;;;0.70;0.30;;;;;;;;;;5066381;28;20230;-51
2024/04/03 10:09:41;;;;;;;1.15;0.55;;;;;;;;;;5066557;28;20298;-56
2024/04/03 10:12:14;;;;;;;0.93;0.50;;;;;;;;;;5066691;28;20569;-56
2024/04/03 10:14:42;;;;;;;0.75;0.45;;;;;;;;;;5066673;28;20203;-56
2024/04/03 10:17:13;;;;;;;0.52;0.32;;;;;;;;;;5066446;28;20286;-54
2024/04/03 10:19:41;;;;;;;0.32;0.30;;;;;;;;;;5066477;28;20283;-55
2024/04/03 10:22:07;;;;;;;0.65;0.55;;;;;;;;;;5066192;28;20288;-56
2024/04/03 10:24:33;;;;;;;0.50;0.43;;;;;;;;;;5066035;28;20258;-55
2024/04/03 10:26:59;;;;;;;0.88;0.60;;;;;;;;;;5066422;28;20206;-53
2024/04/03 10:29:25;;;;;;;0.88;0.70;;;;;;;;;;5066392;28;20207;-56
2024/04/03 10:31:52;;;;;;;1.88;0.82;;;;;;;;;;5066454;28;20210;-56
2024/04/03 10:34:19;;;;;;;0.85;0.60;;;;;;;;;;5066029;28;20234;-54
2024/04/03 10:36:45;;;;;;;1.40;0.60;;;;;;;;;;5066249;28;20202;-54
2024/04/03 10:39:12;;;;;;;0.73;0.40;;;;;;;;;;5066052;28;20223;-53
2024/04/03 10:41:38;;;;;;;1.52;0.73;;;;;;;;;;5066330;28;20199;-55
2024/04/03 10:44:04;;;;;;;0.75;0.55;;;;;;;;;;5069068;28;20290;-56
2024/04/03 10:46:30;;;;;;;1.35;0.70;;;;;;;;;;5070127;28;20691;-55
2024/04/03 10:48:58;;;;;;;1.23;0.60;;;;;;;;;;5070281;28;20228;-56
2024/04/03 10:51:23;;;;;;;2.15;0.68;;;;;;;;;;5070120;28;20202;-56
2024/04/03 10:53:50;;;;;;;0.75;0.50;;;;;;;;;;5070068;28;20217;-52
2024/04/03 10:56:16;;;;;;;1.55;0.75;;;;;;;;;;5070020;28;20195;-55
2024/04/03 10:58:44;;;;;;;1.60;0.70;;;;;;;;;;5070125;28;20206;-53
2024/04/03 11:01:10;;;;;;;1.05;0.50;;;;;;;;;;5070054;28;20707;-56
2024/04/03 11:03:39;;;;;;;1.95;0.68;;;;;;;;;;5069890;28;20209;-55
2024/04/03 11:06:06;;;;;;;1.75;0.75;;;;;;;;;;5069652;28;20202;-56
2024/04/03 11:08:32;;;;;;;1.52;0.65;;;;;;;;;;5069641;28;20206;-52
2024/04/03 11:11:04;;;;;;;2.55;0.50;;;;;;;;;;5069552;28;20195;-56
2024/04/03 11:13:31;;;;;;;2.25;0.47;;;;;;;;;;5069745;28;20750;-54
2024/04/03 11:15:56;;;;;;;1.38;0.77;;;;;;;;;;5033918;28;20282;-53
2024/04/03 11:18:23;;;;;;;1.25;0.70;;;;;;;;;;5069751;28;20285;-54
2024/04/03 11:20:48;;;;;;;3.13;0.60;;;;;;;;;;5069606;28;20240;-55
2024/04/03 11:23:16;;;;;;;0.70;0.50;;;;;;;;;;5069258;28;20203;-54
2024/04/03 11:25:42;;;;;;;1.08;0.60;;;;;;;;;;5069693;28;20233;-54
2024/04/03 11:28:09;;;;;;;1.17;0.57;;;;;;;;;;5069317;28;20207;-54
2024/04/03 11:30:38;;;;;;;2.15;0.70;;;;;;;;;;5069243;28;20217;-56
2024/04/03 11:33:05;;;;;;;0.73;0.70;;;;;;;;;;5069502;28;20203;-53
2024/04/03 11:35:31;;;;;;;0.85;0.60;;;;;;;;;;5069101;28;20286;-55
2024/04/03 11:38:00;;;;;;;2.13;0.60;;;;;;;;;;5069099;28;20290;-55
2024/04/03 11:40:27;;;;;;;1.20;0.52;;;;;;;;;;5068909;28;20760;-51
2024/04/03 11:42:54;;;;;;;0.90;0.60;;;;;;;;;;5068978;28;20231;-55
2024/04/03 11:45:19;;;;;;;1.30;0.50;;;;;;;;;;5069054;28;20199;-53
2024/04/03 11:47:46;;;;;;;1.08;0.77;;;;;;;;;;5069083;28;20648;-52
2024/04/03 11:50:11;;;;;;;1.77;0.80;;;;;;;;;;5069018;28;20762;-55
2024/04/03 11:52:38;;;;;;;0.40;0.40;;;;;;;;;;5068927;28;20298;-56
2024/04/03 11:55:06;;;;;;;2.00;0.63;;;;;;;;;;5068352;28;20199;-55
2024/04/03 11:57:35;;;;;;;1.00;0.70;;;;;;;;;;5068873;28;20199;-56
2024/04/03 12:00:00;;;;;;;3.72;1.15;;;;;;;;;;5068733;28;20756;-55
2024/04/03 12:02:27;;;;;;;1.15;0.63;;;;;;;;;;5068647;28;20207;-54
2024/04/03 12:04:52;;;;;;;1.23;0.50;;;;;;;;;;5049688;28;20203;-54
2024/04/03 12:07:19;;;;;;;0.85;0.50;;;;;;;;;;5068492;28;20213;-52
2024/04/03 12:09:45;;;;;;;1.38;0.70;;;;;;;;;;5068749;28;20199;-55
2024/04/03 12:12:12;;;;;;;1.00;0.57;;;;;;;;;;5068637;28;20225;-55
2024/04/03 12:14:39;;;;;;;1.02;0.80;;;;;;;;;;5068741;28;20664;-56
2024/04/03 12:17:06;;;;;;;2.38;0.68;;;;;;;;;;5068770;28;20293;-55
2024/04/03 12:19:44;;;;;;;0.90;0.57;;;;;;;;;;5068415;28;20230;-54
2024/04/03 12:22:10;;;;;;;2.10;0.60;;;;;;;;;;5068468;28;20199;-55
2024/04/03 12:24:36;;;;;;;1.92;1.00;;;;;;;;;;5068443;28;20226;-52
2024/04/03 12:27:03;;;;;;;1.85;0.80;;;;;;;;;;5068658;28;20207;-55
2024/04/03 12:29:28;;;;;;;1.25;0.70;;;;;;;;;;5068162;28;20203;-52
2024/04/03 12:31:56;;;;;;;1.08;0.50;;;;;;;;;;5068057;28;20203;-54
2024/04/03 12:34:21;;;;;;;2.83;0.70;;;;;;;;;;5068061;28;20202;-54
2024/04/03 12:36:49;;;;;;;1.15;0.32;;;;;;;;;;5068329;28;20579;-54
2024/04/03 12:39:14;;;;;;;1.63;0.80;;;;;;;;;;5032644;28;20233;-54
2024/04/03 12:41:41;;;;;;;1.48;0.52;;;;;;;;;;5068420;28;20286;-55
2024/04/03 12:44:06;;;;;;;1.98;1.02;;;;;;;;;;5068330;28;20199;-54
2024/04/03 12:46:33;;;;;;;2.53;0.60;;;;;;;;;;5067920;28;20596;-56
2024/04/03 12:49:00;;;;;;;1.27;0.60;;;;;;;;;;5048828;28;20210;-54
2024/04/03 12:51:26;;;;;;;0.73;0.73;;;;;;;;;;5067511;28;20280;-53
2024/04/03 12:53:52;;;;;;;1.55;0.80;;;;;;;;;;5067710;28;20586;-55
2024/04/03 12:56:20;;;;;;;1.95;0.80;;;;;;;;;;5067704;28;20210;-56
2024/04/03 12:58:46;;;;;;;1.52;0.60;;;;;;;;;;5067782;28;20284;-55
2024/04/03 13:01:12;;;;;;;4.28;0.82;;;;;;;;;;5067519;28;20261;-55
2024/04/03 13:03:38;;;;;;;1.20;0.55;;;;;;;;;;5067631;28;20202;-52
2024/04/03 13:06:06;;;;;;;1.27;0.80;;;;;;;;;;5066309;28;20294;-55
2024/04/03 13:08:32;;;;;;;1.30;0.90;;;;;;;;;;5067627;28;20244;-55
2024/04/03 13:10:59;;;;;;;2.00;0.52;;;;;;;;;;5067263;28;20564;-57
2024/04/03 13:13:25;;;;;;;0.85;0.50;;;;;;;;;;5067419;28;20203;-53
2024/04/03 13:15:58;;;;;;;1.17;0.50;;;;;;;;;;5067374;28;20596;-56
2024/04/03 13:18:23;;;;;;;0.82;0.60;;;;;;;;;;5067148;28;20265;-55
2024/04/03 13:20:50;;;;;;;2.63;0.90;;;;;;;;;;5067042;28;20230;-53
2024/04/03 13:23:17;;;;;;;1.00;0.57;;;;;;;;;;5067304;28;20286;-55
2024/04/03 13:25:43;;;;;;;0.60;0.50;;;;;;;;;;5067519;28;20773;-54
2024/04/03 13:28:09;;;;;;;1.38;0.60;;;;;;;;;;5067106;28;20202;-55
2024/04/03 13:30:35;;;;;;;0.55;0.55;;;;;;;;;;5067136;28;20202;-55
2024/04/03 13:33:01;;;;;;;1.08;0.70;;;;;;;;;;5067010;28;20206;-52
2024/04/03 13:35:28;;;;;;;2.03;0.65;;;;;;;;;;5066835;28;20233;-56
2024/04/03 13:37:54;;;;;;;0.93;0.70;;;;;;;;;;5067230;28;20190;-52
2024/04/03 13:40:21;;;;;;;0.70;0.70;;;;;;;;;;5067394;28;20238;-55
2024/04/03 13:42:47;;;;;;;1.10;0.60;;;;;;;;;;5066953;28;20231;-57
2024/04/03 13:45:14;;;;;;;1.05;0.60;;;;;;;;;;5066574;28;20229;-55
2024/04/03 13:47:39;;;;;;;1.38;0.50;;;;;;;;;;5066962;28;20245;-55
2024/04/03 13:50:06;;;;;;;0.55;0.40;;;;;;;;;;5030879;28;20211;-56
2024/04/03 13:52:32;;;;;;;1.08;0.57;;;;;;;;;;5066793;28;21081;-57
2024/04/03 13:54:59;;;;;;;0.52;0.40;;;;;;;;;;5066643;28;20217;-58
2024/04/03 13:57:26;;;;;;;1.42;0.43;;;;;;;;;;5066839;28;20206;-56
2024/04/03 13:59:53;;;;;;;1.42;0.73;;;;;;;;;;5066240;28;20718;-56
2024/04/03 14:02:19;;;;;;;2.72;0.60;;;;;;;;;;5066380;28;20199;-54
2024/04/03 14:04:45;;;;;;;2.28;0.73;;;;;;;;;;5047517;28;20253;-54
2024/04/03 14:07:11;;;;;;;1.25;0.50;;;;;;;;;;5066341;28;20668;-55
2024/04/03 14:09:39;;;;;;;0.90;0.63;;;;;;;;;;5066615;28;20217;-56
2024/04/03 14:12:05;;;;;;;0.95;0.60;;;;;;;;;;5066527;28;20206;-54
2024/04/03 14:14:32;;;;;;;0.45;0.40;;;;;;;;;;5066479;28;20203;-55
2024/04/03 14:16:58;;;;;;;1.13;0.70;;;;;;;;;;5066054;28;20202;-55
2024/04/03 14:19:25;;;;;;;1.05;0.60;;;;;;;;;;5066259;28;20198;-55
2024/04/03 14:21:52;;;;;;;1.30;0.70;;;;;;;;;;5066127;28;20195;-55
2024/04/03 14:24:18;;;;;;;0.90;0.73;;;;;;;;;;5066533;28;20241;-56
2024/04/03 14:26:44;;;;;;;1.00;0.60;;;;;;;;;;5066108;28;20210;-55
2024/04/03 14:29:10;;;;;;;1.63;1.23;;;;;;;;;;5047344;28;20202;-55
2024/04/03 14:31:38;;;;;;;1.63;0.82;;;;;;;;;;5066212;28;20206;-55
2024/04/03 14:34:05;;;;;;;1.15;0.73;;;;;;;;;;5066193;28;20310;-55
2024/04/03 14:36:30;;;;;;;1.05;0.60;;;;;;;;;;5066076;28;20225;-57
2024/04/03 14:38:57;;;;;;;1.65;0.70;;;;;;;;;;5065900;28;20742;-54
2024/04/03 14:41:22;;;;;;;1.95;0.70;;;;;;;;;;5066466;28;20241;-55